sensor_id;sensor_type;location;lat;lon;timestamp;P1;durP1;ratioP1;P2;durP2;ratioP2
23282;SDS011;11810;51.178;3.878;2022-09-16T00:01:23;6.30;;;1.40;;
23282;SDS011;11810;51.178;3.878;2022-09-16T00:03:53;12.23;;;1.63;;
23282;SDS011;11810;51.178;3.878;2022-09-16T00:06:24;6.53;;;1.35;;
23282;SDS011;11810;51.178;3.878;2022-09-16T00:08:53;7.20;;;1.83;;
23282;SDS011;11810;51.178;3.878;2022-09-16T00:11:20;5.60;;;1.58;;
23282;SDS011;11810;51.178;3.878;2022-09-16T00:13:47;5.10;;;1.92;;
23282;SDS011;11810;51.178;3.878;2022-09-16T00:16:17;8.27;;;1.80;;
23282;SDS011;11810;51.178;3.878;2022-09-16T00:18:51;7.78;;;1.67;;
23282;SDS011;11810;51.178;3.878;2022-09-16T00:21:18;10.02;;;1.92;;
23282;SDS011;11810;51.178;3.878;2022-09-16T00:23:44;4.25;;;1.30;;
23282;SDS011;11810;51.178;3.878;2022-09-16T00:26:10;6.05;;;1.00;;
23282;SDS011;11810;51.178;3.878;2022-09-16T00:28:36;6.53;;;1.23;;
23282;SDS011;11810;51.178;3.878;2022-09-16T00:31:02;7.05;;;1.42;;
23282;SDS011;11810;51.178;3.878;2022-09-16T00:33:28;4.97;;;1.00;;
23282;SDS011;11810;51.178;3.878;2022-09-16T00:36:08;6.90;;;1.15;;
23282;SDS011;11810;51.178;3.878;2022-09-16T00:38:40;5.32;;;1.25;;
23282;SDS011;11810;51.178;3.878;2022-09-16T00:41:07;5.13;;;1.10;;
23282;SDS011;11810;51.178;3.878;2022-09-16T00:43:47;8.05;;;1.33;;
23282;SDS011;11810;51.178;3.878;2022-09-16T00:46:26;9.30;;;0.95;;
23282;SDS011;11810;51.178;3.878;2022-09-16T00:49:20;6.28;;;1.27;;
23282;SDS011;11810;51.178;3.878;2022-09-16T00:51:50;5.85;;;1.13;;
23282;SDS011;11810;51.178;3.878;2022-09-16T00:54:21;5.97;;;1.50;;
23282;SDS011;11810;51.178;3.878;2022-09-16T00:56:49;9.50;;;1.25;;
23282;SDS011;11810;51.178;3.878;2022-09-16T00:59:20;5.70;;;1.00;;
23282;SDS011;11810;51.178;3.878;2022-09-16T01:01:50;4.13;;;1.05;;
23282;SDS011;11810;51.178;3.878;2022-09-16T01:04:28;10.50;;;1.55;;
23282;SDS011;11810;51.178;3.878;2022-09-16T01:06:56;5.53;;;0.93;;
23282;SDS011;11810;51.178;3.878;2022-09-16T01:09:23;3.72;;;1.10;;
23282;SDS011;11810;51.178;3.878;2022-09-16T01:11:50;8.63;;;1.33;;
23282;SDS011;11810;51.178;3.878;2022-09-16T01:14:16;7.30;;;1.00;;
23282;SDS011;11810;51.178;3.878;2022-09-16T01:19:36;5.05;;;1.08;;
23282;SDS011;11810;51.178;3.878;2022-09-16T01:25:16;4.22;;;1.30;;
23282;SDS011;11810;51.178;3.878;2022-09-16T01:45:16;8.73;;;2.10;;
23282;SDS011;11810;51.178;3.878;2022-09-16T01:51:04;12.52;;;1.92;;
23282;SDS011;11810;51.178;3.878;2022-09-16T01:53:20;8.68;;;2.13;;
23282;SDS011;11810;51.178;3.878;2022-09-16T01:58:50;5.65;;;2.35;;
23282;SDS011;11810;51.178;3.878;2022-09-16T02:01:28;6.30;;;2.20;;
23282;SDS011;11810;51.178;3.878;2022-09-16T02:03:59;6.35;;;2.78;;
23282;SDS011;11810;51.178;3.878;2022-09-16T02:06:31;6.60;;;3.10;;
23282;SDS011;11810;51.178;3.878;2022-09-16T02:09:00;12.30;;;3.20;;
23282;SDS011;11810;51.178;3.878;2022-09-16T02:11:29;13.70;;;4.35;;
23282;SDS011;11810;51.178;3.878;2022-09-16T02:16:24;4.57;;;2.42;;
23282;SDS011;11810;51.178;3.878;2022-09-16T02:18:59;7.07;;;2.30;;
23282;SDS011;11810;51.178;3.878;2022-09-16T02:21:30;14.68;;;2.40;;
23282;SDS011;11810;51.178;3.878;2022-09-16T02:24:01;8.82;;;2.08;;
23282;SDS011;11810;51.178;3.878;2022-09-16T02:26:34;7.68;;;2.22;;
23282;SDS011;11810;51.178;3.878;2022-09-16T02:29:06;5.88;;;2.42;;
23282;SDS011;11810;51.178;3.878;2022-09-16T02:31:38;3.65;;;1.80;;
23282;SDS011;11810;51.178;3.878;2022-09-16T02:34:06;4.45;;;2.05;;
23282;SDS011;11810;51.178;3.878;2022-09-16T02:36:42;9.80;;;2.10;;
23282;SDS011;11810;51.178;3.878;2022-09-16T02:39:11;6.88;;;2.03;;
23282;SDS011;11810;51.178;3.878;2022-09-16T02:41:40;9.15;;;2.47;;
23282;SDS011;11810;51.178;3.878;2022-09-16T02:44:07;9.35;;;2.22;;
23282;SDS011;11810;51.178;3.878;2022-09-16T02:49:27;10.27;;;2.05;;
23282;SDS011;11810;51.178;3.878;2022-09-16T02:55:08;7.38;;;1.67;;
23282;SDS011;11810;51.178;3.878;2022-09-16T02:57:42;9.90;;;1.80;;
23282;SDS011;11810;51.178;3.878;2022-09-16T03:00:08;10.20;;;2.42;;
23282;SDS011;11810;51.178;3.878;2022-09-16T03:02:34;9.02;;;1.80;;
23282;SDS011;11810;51.178;3.878;2022-09-16T03:05:01;8.75;;;1.60;;
23282;SDS011;11810;51.178;3.878;2022-09-16T03:07:27;9.65;;;2.03;;
23282;SDS011;11810;51.178;3.878;2022-09-16T03:09:53;7.60;;;1.60;;
23282;SDS011;11810;51.178;3.878;2022-09-16T03:15:16;3.65;;;1.60;;
23282;SDS011;11810;51.178;3.878;2022-09-16T03:26:33;7.10;;;1.80;;
23282;SDS011;11810;51.178;3.878;2022-09-16T03:29:14;8.40;;;1.80;;
23282;SDS011;11810;51.178;3.878;2022-09-16T03:37:19;5.10;;;1.67;;
23282;SDS011;11810;51.178;3.878;2022-09-16T03:39:51;3.88;;;1.38;;
23282;SDS011;11810;51.178;3.878;2022-09-16T03:42:22;6.38;;;1.30;;
23282;SDS011;11810;51.178;3.878;2022-09-16T03:44:48;8.88;;;1.50;;
23282;SDS011;11810;51.178;3.878;2022-09-16T03:47:14;8.32;;;1.88;;
23282;SDS011;11810;51.178;3.878;2022-09-16T03:49:41;16.33;;;1.45;;
23282;SDS011;11810;51.178;3.878;2022-09-16T03:52:07;7.57;;;1.60;;
23282;SDS011;11810;51.178;3.878;2022-09-16T03:54:34;11.35;;;1.60;;
23282;SDS011;11810;51.178;3.878;2022-09-16T03:57:00;7.68;;;2.05;;
23282;SDS011;11810;51.178;3.878;2022-09-16T03:59:27;8.60;;;1.63;;
23282;SDS011;11810;51.178;3.878;2022-09-16T04:01:53;12.43;;;1.80;;
23282;SDS011;11810;51.178;3.878;2022-09-16T04:04:20;7.55;;;1.90;;
23282;SDS011;11810;51.178;3.878;2022-09-16T04:06:46;4.68;;;1.27;;
23282;SDS011;11810;51.178;3.878;2022-09-16T04:09:12;8.35;;;2.60;;
23282;SDS011;11810;51.178;3.878;2022-09-16T04:11:39;4.03;;;2.60;;
23282;SDS011;11810;51.178;3.878;2022-09-16T04:14:06;7.28;;;1.90;;
23282;SDS011;11810;51.178;3.878;2022-09-16T04:16:32;9.25;;;1.98;;
23282;SDS011;11810;51.178;3.878;2022-09-16T04:18:58;6.43;;;1.40;;
23282;SDS011;11810;51.178;3.878;2022-09-16T04:21:24;6.65;;;1.25;;
23282;SDS011;11810;51.178;3.878;2022-09-16T04:23:50;7.75;;;1.55;;
23282;SDS011;11810;51.178;3.878;2022-09-16T04:26:18;8.25;;;1.40;;
23282;SDS011;11810;51.178;3.878;2022-09-16T04:28:45;6.68;;;1.10;;
23282;SDS011;11810;51.178;3.878;2022-09-16T04:31:13;9.52;;;1.23;;
23282;SDS011;11810;51.178;3.878;2022-09-16T04:33:40;8.63;;;1.20;;
23282;SDS011;11810;51.178;3.878;2022-09-16T04:36:10;9.13;;;1.25;;
23282;SDS011;11810;51.178;3.878;2022-09-16T04:38:38;9.88;;;1.20;;
23282;SDS011;11810;51.178;3.878;2022-09-16T04:41:09;5.60;;;0.90;;
23282;SDS011;11810;51.178;3.878;2022-09-16T04:43:39;4.78;;;0.93;;
23282;SDS011;11810;51.178;3.878;2022-09-16T04:46:05;10.73;;;1.48;;
23282;SDS011;11810;51.178;3.878;2022-09-16T04:48:33;9.63;;;1.50;;
23282;SDS011;11810;51.178;3.878;2022-09-16T04:51:03;11.63;;;1.45;;
23282;SDS011;11810;51.178;3.878;2022-09-16T04:53:32;7.90;;;1.70;;
23282;SDS011;11810;51.178;3.878;2022-09-16T04:56:05;8.10;;;1.23;;
23282;SDS011;11810;51.178;3.878;2022-09-16T05:01:03;5.97;;;1.33;;
23282;SDS011;11810;51.178;3.878;2022-09-16T05:03:36;10.85;;;1.52;;
23282;SDS011;11810;51.178;3.878;2022-09-16T05:06:08;7.55;;;1.15;;
23282;SDS011;11810;51.178;3.878;2022-09-16T05:08:38;6.63;;;0.90;;
23282;SDS011;11810;51.178;3.878;2022-09-16T05:11:05;7.57;;;1.08;;
23282;SDS011;11810;51.178;3.878;2022-09-16T05:13:33;6.05;;;1.13;;
23282;SDS011;11810;51.178;3.878;2022-09-16T05:16:00;12.63;;;1.23;;
23282;SDS011;11810;51.178;3.878;2022-09-16T05:18:30;7.38;;;1.13;;
23282;SDS011;11810;51.178;3.878;2022-09-16T05:20:57;8.15;;;1.35;;
23282;SDS011;11810;51.178;3.878;2022-09-16T05:23:24;5.80;;;1.33;;
23282;SDS011;11810;51.178;3.878;2022-09-16T05:25:50;8.38;;;1.20;;
23282;SDS011;11810;51.178;3.878;2022-09-16T05:28:16;8.60;;;1.48;;
23282;SDS011;11810;51.178;3.878;2022-09-16T05:30:42;9.90;;;1.58;;
23282;SDS011;11810;51.178;3.878;2022-09-16T05:33:08;7.88;;;1.67;;
23282;SDS011;11810;51.178;3.878;2022-09-16T05:35:34;8.82;;;1.50;;
23282;SDS011;11810;51.178;3.878;2022-09-16T05:38:00;11.75;;;1.38;;
23282;SDS011;11810;51.178;3.878;2022-09-16T05:40:26;6.50;;;1.17;;
23282;SDS011;11810;51.178;3.878;2022-09-16T05:42:53;7.80;;;2.03;;
23282;SDS011;11810;51.178;3.878;2022-09-16T05:45:19;7.55;;;2.13;;
23282;SDS011;11810;51.178;3.878;2022-09-16T05:47:48;9.15;;;1.48;;
23282;SDS011;11810;51.178;3.878;2022-09-16T05:50:15;13.35;;;1.52;;
23282;SDS011;11810;51.178;3.878;2022-09-16T05:52:41;7.13;;;1.88;;
23282;SDS011;11810;51.178;3.878;2022-09-16T05:55:07;12.60;;;2.45;;
23282;SDS011;11810;51.178;3.878;2022-09-16T05:57:34;8.10;;;2.10;;
23282;SDS011;11810;51.178;3.878;2022-09-16T06:00:01;6.80;;;1.63;;
23282;SDS011;11810;51.178;3.878;2022-09-16T06:02:28;12.10;;;2.10;;
23282;SDS011;11810;51.178;3.878;2022-09-16T06:04:54;8.05;;;1.98;;
23282;SDS011;11810;51.178;3.878;2022-09-16T06:07:20;5.15;;;1.50;;
23282;SDS011;11810;51.178;3.878;2022-09-16T06:09:46;5.57;;;1.48;;
23282;SDS011;11810;51.178;3.878;2022-09-16T06:12:12;9.20;;;1.65;;
23282;SDS011;11810;51.178;3.878;2022-09-16T06:14:39;15.77;;;2.38;;
23282;SDS011;11810;51.178;3.878;2022-09-16T06:17:05;7.88;;;1.63;;
23282;SDS011;11810;51.178;3.878;2022-09-16T06:19:31;9.80;;;1.83;;
23282;SDS011;11810;51.178;3.878;2022-09-16T06:21:57;8.35;;;1.65;;
23282;SDS011;11810;51.178;3.878;2022-09-16T06:24:23;9.40;;;3.38;;
23282;SDS011;11810;51.178;3.878;2022-09-16T06:26:48;8.20;;;2.78;;
23282;SDS011;11810;51.178;3.878;2022-09-16T06:29:15;13.32;;;3.10;;
23282;SDS011;11810;51.178;3.878;2022-09-16T06:31:41;8.93;;;2.13;;
23282;SDS011;11810;51.178;3.878;2022-09-16T06:34:10;9.50;;;2.03;;
23282;SDS011;11810;51.178;3.878;2022-09-16T06:36:38;6.10;;;1.40;;
23282;SDS011;11810;51.178;3.878;2022-09-16T06:39:04;12.05;;;1.30;;
23282;SDS011;11810;51.178;3.878;2022-09-16T06:41:31;8.63;;;1.63;;
23282;SDS011;11810;51.178;3.878;2022-09-16T06:43:58;11.02;;;1.75;;
23282;SDS011;11810;51.178;3.878;2022-09-16T06:46:25;14.98;;;1.77;;
23282;SDS011;11810;51.178;3.878;2022-09-16T06:48:53;9.05;;;1.77;;
23282;SDS011;11810;51.178;3.878;2022-09-16T06:51:25;12.45;;;1.58;;
23282;SDS011;11810;51.178;3.878;2022-09-16T06:53:53;7.18;;;1.60;;
23282;SDS011;11810;51.178;3.878;2022-09-16T06:56:22;11.32;;;2.08;;
23282;SDS011;11810;51.178;3.878;2022-09-16T06:58:49;16.23;;;1.80;;
23282;SDS011;11810;51.178;3.878;2022-09-16T07:01:23;12.63;;;1.73;;
23282;SDS011;11810;51.178;3.878;2022-09-16T07:03:51;17.17;;;2.10;;
23282;SDS011;11810;51.178;3.878;2022-09-16T07:06:18;10.68;;;1.80;;
23282;SDS011;11810;51.178;3.878;2022-09-16T07:08:45;19.52;;;2.30;;
23282;SDS011;11810;51.178;3.878;2022-09-16T07:11:16;9.93;;;1.90;;
23282;SDS011;11810;51.178;3.878;2022-09-16T07:13:43;8.15;;;1.70;;
23282;SDS011;11810;51.178;3.878;2022-09-16T07:16:12;13.18;;;2.17;;
23282;SDS011;11810;51.178;3.878;2022-09-16T07:18:40;11.95;;;1.70;;
23282;SDS011;11810;51.178;3.878;2022-09-16T07:21:08;9.77;;;1.45;;
23282;SDS011;11810;51.178;3.878;2022-09-16T07:23:35;6.90;;;1.67;;
23282;SDS011;11810;51.178;3.878;2022-09-16T07:26:04;7.40;;;1.52;;
23282;SDS011;11810;51.178;3.878;2022-09-16T07:28:32;8.05;;;1.65;;
23282;SDS011;11810;51.178;3.878;2022-09-16T07:31:01;6.90;;;1.75;;
23282;SDS011;11810;51.178;3.878;2022-09-16T07:33:34;11.45;;;2.20;;
23282;SDS011;11810;51.178;3.878;2022-09-16T07:36:05;9.88;;;2.95;;
23282;SDS011;11810;51.178;3.878;2022-09-16T07:38:33;10.25;;;3.15;;
23282;SDS011;11810;51.178;3.878;2022-09-16T07:41:06;11.43;;;3.90;;
23282;SDS011;11810;51.178;3.878;2022-09-16T07:43:34;15.82;;;4.35;;
23282;SDS011;11810;51.178;3.878;2022-09-16T07:46:00;13.43;;;4.50;;
23282;SDS011;11810;51.178;3.878;2022-09-16T07:48:30;11.63;;;3.22;;
23282;SDS011;11810;51.178;3.878;2022-09-16T07:50:57;9.50;;;2.15;;
23282;SDS011;11810;51.178;3.878;2022-09-16T07:53:25;7.32;;;1.60;;
23282;SDS011;11810;51.178;3.878;2022-09-16T07:55:53;9.95;;;1.67;;
23282;SDS011;11810;51.178;3.878;2022-09-16T07:58:20;0.20;;;0.20;;
23282;SDS011;11810;51.178;3.878;2022-09-16T08:00:47;0.10;;;0.10;;
23282;SDS011;11810;51.178;3.878;2022-09-16T08:03:14;0.95;;;0.95;;
23282;SDS011;11810;51.178;3.878;2022-09-16T08:05:40;0.10;;;0.10;;
23282;SDS011;11810;51.178;3.878;2022-09-16T08:08:07;0.10;;;0.10;;
23282;SDS011;11810;51.178;3.878;2022-09-16T08:10:33;31.80;;;1.20;;
23282;SDS011;11810;51.178;3.878;2022-09-16T08:13:01;0.10;;;0.10;;
23282;SDS011;11810;51.178;3.878;2022-09-16T08:15:28;0.10;;;0.10;;
23282;SDS011;11810;51.178;3.878;2022-09-16T08:17:54;0.20;;;0.20;;
23282;SDS011;11810;51.178;3.878;2022-09-16T08:20:20;0.10;;;0.10;;
23282;SDS011;11810;51.178;3.878;2022-09-16T08:22:46;0.45;;;0.45;;
23282;SDS011;11810;51.178;3.878;2022-09-16T08:25:12;2.08;;;0.90;;
23282;SDS011;11810;51.178;3.878;2022-09-16T08:27:38;3.25;;;2.30;;
23282;SDS011;11810;51.178;3.878;2022-09-16T08:30:04;0.10;;;0.10;;
23282;SDS011;11810;51.178;3.878;2022-09-16T08:32:30;0.20;;;0.20;;
23282;SDS011;11810;51.178;3.878;2022-09-16T08:34:56;4.18;;;1.80;;
23282;SDS011;11810;51.178;3.878;2022-09-16T08:37:22;0.10;;;0.10;;
23282;SDS011;11810;51.178;3.878;2022-09-16T08:39:48;0.93;;;0.85;;
23282;SDS011;11810;51.178;3.878;2022-09-16T08:42:36;1.75;;;1.65;;
23282;SDS011;11810;51.178;3.878;2022-09-16T08:48:40;0.63;;;0.63;;
23282;SDS011;11810;51.178;3.878;2022-09-16T08:50:46;0.00;;;0.00;;
23282;SDS011;11810;51.178;3.878;2022-09-16T08:53:18;0.13;;;0.13;;
23282;SDS011;11810;51.178;3.878;2022-09-16T08:55:51;0.10;;;0.10;;
23282;SDS011;11810;51.178;3.878;2022-09-16T08:58:20;0.00;;;0.00;;
23282;SDS011;11810;51.178;3.878;2022-09-16T09:01:01;0.00;;;0.00;;
23282;SDS011;11810;51.178;3.878;2022-09-16T09:03:41;0.10;;;0.10;;
23282;SDS011;11810;51.178;3.878;2022-09-16T09:22:10;0.00;;;0.00;;
23282;SDS011;11810;51.178;3.878;2022-09-16T09:28:04;0.10;;;0.10;;
23282;SDS011;11810;51.178;3.878;2022-09-16T09:30:43;0.30;;;0.30;;
23282;SDS011;11810;51.178;3.878;2022-09-16T09:36:30;0.00;;;0.00;;
23282;SDS011;11810;51.178;3.878;2022-09-16T09:41:58;0.10;;;0.10;;
23282;SDS011;11810;51.178;3.878;2022-09-16T09:50:39;0.63;;;0.30;;
23282;SDS011;11810;51.178;3.878;2022-09-16T09:56:04;0.10;;;0.10;;
23282;SDS011;11810;51.178;3.878;2022-09-16T09:59:16;0.00;;;0.00;;
23282;SDS011;11810;51.178;3.878;2022-09-16T10:01:32;0.10;;;0.10;;
23282;SDS011;11810;51.178;3.878;2022-09-16T10:03:58;0.30;;;0.30;;
23282;SDS011;11810;51.178;3.878;2022-09-16T10:06:28;0.10;;;0.10;;
23282;SDS011;11810;51.178;3.878;2022-09-16T10:08:58;0.10;;;0.10;;
23282;SDS011;11810;51.178;3.878;2022-09-16T10:11:26;0.17;;;0.17;;
23282;SDS011;11810;51.178;3.878;2022-09-16T10:13:59;0.00;;;0.00;;
23282;SDS011;11810;51.178;3.878;2022-09-16T10:21:37;0.10;;;0.10;;
23282;SDS011;11810;51.178;3.878;2022-09-16T10:26:56;0.10;;;0.10;;
23282;SDS011;11810;51.178;3.878;2022-09-16T10:29:23;0.10;;;0.10;;
23282;SDS011;11810;51.178;3.878;2022-09-16T10:31:49;0.20;;;0.20;;
23282;SDS011;11810;51.178;3.878;2022-09-16T10:34:31;0.10;;;0.10;;
23282;SDS011;11810;51.178;3.878;2022-09-16T10:37:04;0.10;;;0.10;;
23282;SDS011;11810;51.178;3.878;2022-09-16T10:39:42;0.10;;;0.10;;
23282;SDS011;11810;51.178;3.878;2022-09-16T10:42:15;0.10;;;0.10;;
23282;SDS011;11810;51.178;3.878;2022-09-16T10:44:52;0.20;;;0.20;;
23282;SDS011;11810;51.178;3.878;2022-09-16T10:47:38;0.10;;;0.10;;
23282;SDS011;11810;51.178;3.878;2022-09-16T10:50:05;0.10;;;0.10;;
23282;SDS011;11810;51.178;3.878;2022-09-16T10:52:42;0.57;;;0.57;;
23282;SDS011;11810;51.178;3.878;2022-09-16T10:57:51;0.03;;;0.03;;
23282;SDS011;11810;51.178;3.878;2022-09-16T11:11:18;0.10;;;0.10;;
23282;SDS011;11810;51.178;3.878;2022-09-16T11:14:20;0.43;;;0.43;;
23282;SDS011;11810;51.178;3.878;2022-09-16T11:25:07;0.47;;;0.47;;
23282;SDS011;11810;51.178;3.878;2022-09-16T11:30:39;0.10;;;0.10;;
23282;SDS011;11810;51.178;3.878;2022-09-16T11:41:28;0.10;;;0.10;;
23282;SDS011;11810;51.178;3.878;2022-09-16T11:49:44;0.00;;;0.00;;
23282;SDS011;11810;51.178;3.878;2022-09-16T11:55:12;0.10;;;0.10;;
23282;SDS011;11810;51.178;3.878;2022-09-16T11:57:44;0.00;;;0.00;;
23282;SDS011;11810;51.178;3.878;2022-09-16T12:00:16;0.10;;;0.10;;
23282;SDS011;11810;51.178;3.878;2022-09-16T12:11:06;0.08;;;0.08;;
23282;SDS011;11810;51.178;3.878;2022-09-16T12:14:10;0.00;;;0.00;;
23282;SDS011;11810;51.178;3.878;2022-09-16T12:16:53;0.10;;;0.10;;
23282;SDS011;11810;51.178;3.878;2022-09-16T12:20:04;0.00;;;0.00;;
23282;SDS011;11810;51.178;3.878;2022-09-16T12:22:49;0.00;;;0.00;;
23282;SDS011;11810;51.178;3.878;2022-09-16T12:25:26;0.03;;;0.03;;
23282;SDS011;11810;51.178;3.878;2022-09-16T12:30:52;0.08;;;0.08;;
23282;SDS011;11810;51.178;3.878;2022-09-16T12:33:41;0.20;;;0.20;;
23282;SDS011;11810;51.178;3.878;2022-09-16T12:36:11;0.00;;;0.00;;
23282;SDS011;11810;51.178;3.878;2022-09-16T12:38:40;1.35;;;0.57;;
23282;SDS011;11810;51.178;3.878;2022-09-16T12:46:49;10.48;;;1.75;;
23282;SDS011;11810;51.178;3.878;2022-09-16T12:55:48;8.40;;;1.60;;
23282;SDS011;11810;51.178;3.878;2022-09-16T13:03:44;6.45;;;1.40;;
23282;SDS011;11810;51.178;3.878;2022-09-16T13:08:54;4.95;;;1.25;;
23282;SDS011;11810;51.178;3.878;2022-09-16T13:11:26;7.97;;;1.83;;
23282;SDS011;11810;51.178;3.878;2022-09-16T13:13:55;9.20;;;2.17;;
23282;SDS011;11810;51.178;3.878;2022-09-16T13:16:27;6.25;;;1.77;;
23282;SDS011;11810;51.178;3.878;2022-09-16T13:22:14;2.35;;;0.60;;
23282;SDS011;11810;51.178;3.878;2022-09-16T13:24:56;2.45;;;0.85;;
23282;SDS011;11810;51.178;3.878;2022-09-16T13:27:37;4.30;;;0.68;;
23282;SDS011;11810;51.178;3.878;2022-09-16T13:32:36;3.08;;;0.88;;
23282;SDS011;11810;51.178;3.878;2022-09-16T13:35:34;5.45;;;0.90;;
23282;SDS011;11810;51.178;3.878;2022-09-16T13:43:27;2.08;;;0.70;;
23282;SDS011;11810;51.178;3.878;2022-09-16T13:46:24;3.60;;;0.90;;
23282;SDS011;11810;51.178;3.878;2022-09-16T13:51:45;6.78;;;0.98;;
23282;SDS011;11810;51.178;3.878;2022-09-16T13:54:20;7.38;;;1.30;;
23282;SDS011;11810;51.178;3.878;2022-09-16T13:59:44;8.82;;;1.50;;
23282;SDS011;11810;51.178;3.878;2022-09-16T14:05:33;4.93;;;0.90;;
23282;SDS011;11810;51.178;3.878;2022-09-16T14:08:38;6.13;;;1.10;;
23282;SDS011;11810;51.178;3.878;2022-09-16T14:14:17;5.53;;;0.80;;
23282;SDS011;11810;51.178;3.878;2022-09-16T14:16:46;4.17;;;1.00;;
23282;SDS011;11810;51.178;3.878;2022-09-16T14:19:26;4.20;;;1.02;;
23282;SDS011;11810;51.178;3.878;2022-09-16T14:22:00;7.22;;;1.40;;
23282;SDS011;11810;51.178;3.878;2022-09-16T14:24:38;7.97;;;1.13;;
23282;SDS011;11810;51.178;3.878;2022-09-16T14:27:16;5.88;;;0.85;;
23282;SDS011;11810;51.178;3.878;2022-09-16T14:30:20;1.60;;;0.68;;
23282;SDS011;11810;51.178;3.878;2022-09-16T14:32:43;5.30;;;1.02;;
23282;SDS011;11810;51.178;3.878;2022-09-16T14:35:14;7.10;;;0.77;;
23282;SDS011;11810;51.178;3.878;2022-09-16T14:37:45;7.35;;;0.70;;
23282;SDS011;11810;51.178;3.878;2022-09-16T14:40:16;7.15;;;0.77;;
23282;SDS011;11810;51.178;3.878;2022-09-16T14:42:54;7.55;;;1.25;;
23282;SDS011;11810;51.178;3.878;2022-09-16T14:45:29;2.85;;;0.60;;
23282;SDS011;11810;51.178;3.878;2022-09-16T14:47:57;3.30;;;0.70;;
23282;SDS011;11810;51.178;3.878;2022-09-16T14:50:29;1.80;;;0.50;;
23282;SDS011;11810;51.178;3.878;2022-09-16T14:52:58;2.53;;;0.52;;
23282;SDS011;11810;51.178;3.878;2022-09-16T14:55:31;2.17;;;0.75;;
23282;SDS011;11810;51.178;3.878;2022-09-16T14:58:00;3.05;;;0.77;;
23282;SDS011;11810;51.178;3.878;2022-09-16T15:00:29;4.47;;;0.82;;
23282;SDS011;11810;51.178;3.878;2022-09-16T15:03:27;3.22;;;0.95;;
23282;SDS011;11810;51.178;3.878;2022-09-16T15:05:57;2.45;;;0.60;;
23282;SDS011;11810;51.178;3.878;2022-09-16T15:08:51;1.88;;;0.82;;
23282;SDS011;11810;51.178;3.878;2022-09-16T15:11:19;2.08;;;0.50;;
23282;SDS011;11810;51.178;3.878;2022-09-16T15:13:47;3.80;;;0.70;;
23282;SDS011;11810;51.178;3.878;2022-09-16T15:16:15;2.55;;;0.50;;
23282;SDS011;11810;51.178;3.878;2022-09-16T15:21:19;7.32;;;0.57;;
23282;SDS011;11810;51.178;3.878;2022-09-16T15:23:52;3.20;;;0.98;;
23282;SDS011;11810;51.178;3.878;2022-09-16T15:26:22;3.88;;;0.50;;
23282;SDS011;11810;51.178;3.878;2022-09-16T15:29:12;6.20;;;0.82;;
23282;SDS011;11810;51.178;3.878;2022-09-16T15:31:42;2.72;;;0.60;;
23282;SDS011;11810;51.178;3.878;2022-09-16T15:34:19;6.35;;;0.88;;
23282;SDS011;11810;51.178;3.878;2022-09-16T15:36:50;2.33;;;1.30;;
23282;SDS011;11810;51.178;3.878;2022-09-16T15:39:30;3.92;;;1.10;;
23282;SDS011;11810;51.178;3.878;2022-09-16T15:42:20;5.57;;;1.50;;
23282;SDS011;11810;51.178;3.878;2022-09-16T15:44:56;5.75;;;1.10;;
23282;SDS011;11810;51.178;3.878;2022-09-16T15:49:51;5.30;;;1.52;;
23282;SDS011;11810;51.178;3.878;2022-09-16T15:52:22;12.45;;;2.13;;
23282;SDS011;11810;51.178;3.878;2022-09-16T15:54:49;9.00;;;2.10;;
23282;SDS011;11810;51.178;3.878;2022-09-16T15:57:37;10.13;;;2.63;;
23282;SDS011;11810;51.178;3.878;2022-09-16T16:00:07;10.43;;;3.03;;
23282;SDS011;11810;51.178;3.878;2022-09-16T16:05:06;8.25;;;1.83;;
23282;SDS011;11810;51.178;3.878;2022-09-16T16:07:47;8.80;;;1.45;;
23282;SDS011;11810;51.178;3.878;2022-09-16T16:10:19;7.85;;;1.08;;
23282;SDS011;11810;51.178;3.878;2022-09-16T16:12:47;8.98;;;1.33;;
23282;SDS011;11810;51.178;3.878;2022-09-16T16:15:14;6.43;;;1.00;;
23282;SDS011;11810;51.178;3.878;2022-09-16T16:17:43;4.30;;;1.05;;
23282;SDS011;11810;51.178;3.878;2022-09-16T16:20:10;6.55;;;1.88;;
23282;SDS011;11810;51.178;3.878;2022-09-16T16:22:37;4.82;;;1.00;;
23282;SDS011;11810;51.178;3.878;2022-09-16T16:25:04;6.20;;;0.82;;
23282;SDS011;11810;51.178;3.878;2022-09-16T16:27:31;8.50;;;1.40;;
23282;SDS011;11810;51.178;3.878;2022-09-16T16:29:57;3.85;;;0.90;;
23282;SDS011;11810;51.178;3.878;2022-09-16T16:32:23;4.25;;;0.90;;
23282;SDS011;11810;51.178;3.878;2022-09-16T16:34:49;6.75;;;1.23;;
23282;SDS011;11810;51.178;3.878;2022-09-16T16:37:16;2.75;;;1.15;;
23282;SDS011;11810;51.178;3.878;2022-09-16T16:39:43;5.05;;;1.23;;
23282;SDS011;11810;51.178;3.878;2022-09-16T16:42:10;4.93;;;1.40;;
23282;SDS011;11810;51.178;3.878;2022-09-16T16:44:37;4.90;;;1.63;;
23282;SDS011;11810;51.178;3.878;2022-09-16T16:47:03;4.47;;;1.75;;
23282;SDS011;11810;51.178;3.878;2022-09-16T16:49:30;4.63;;;1.70;;
23282;SDS011;11810;51.178;3.878;2022-09-16T16:51:56;3.95;;;0.98;;
23282;SDS011;11810;51.178;3.878;2022-09-16T16:54:22;5.90;;;1.02;;
23282;SDS011;11810;51.178;3.878;2022-09-16T16:56:48;4.80;;;1.00;;
23282;SDS011;11810;51.178;3.878;2022-09-16T16:59:15;3.65;;;1.13;;
23282;SDS011;11810;51.178;3.878;2022-09-16T17:01:43;6.43;;;1.52;;
23282;SDS011;11810;51.178;3.878;2022-09-16T17:04:10;9.95;;;2.35;;
23282;SDS011;11810;51.178;3.878;2022-09-16T17:06:37;13.50;;;3.53;;
23282;SDS011;11810;51.178;3.878;2022-09-16T17:09:04;8.07;;;1.63;;
23282;SDS011;11810;51.178;3.878;2022-09-16T17:11:32;9.40;;;1.50;;
23282;SDS011;11810;51.178;3.878;2022-09-16T17:14:02;9.38;;;1.95;;
23282;SDS011;11810;51.178;3.878;2022-09-16T17:16:29;8.40;;;1.45;;
23282;SDS011;11810;51.178;3.878;2022-09-16T17:18:57;9.95;;;1.30;;
23282;SDS011;11810;51.178;3.878;2022-09-16T17:21:25;10.65;;;1.63;;
23282;SDS011;11810;51.178;3.878;2022-09-16T17:23:53;13.85;;;1.90;;
23282;SDS011;11810;51.178;3.878;2022-09-16T17:26:20;7.95;;;1.83;;
23282;SDS011;11810;51.178;3.878;2022-09-16T17:28:47;14.30;;;1.60;;
23282;SDS011;11810;51.178;3.878;2022-09-16T17:31:16;7.30;;;1.23;;
23282;SDS011;11810;51.178;3.878;2022-09-16T17:33:44;7.68;;;1.08;;
23282;SDS011;11810;51.178;3.878;2022-09-16T17:36:12;7.68;;;1.17;;
23282;SDS011;11810;51.178;3.878;2022-09-16T17:38:39;11.73;;;1.48;;
23282;SDS011;11810;51.178;3.878;2022-09-16T17:41:10;11.02;;;1.73;;
23282;SDS011;11810;51.178;3.878;2022-09-16T17:43:38;6.50;;;1.10;;
23282;SDS011;11810;51.178;3.878;2022-09-16T17:46:05;8.15;;;1.30;;
23282;SDS011;11810;51.178;3.878;2022-09-16T17:48:32;8.90;;;1.10;;
23282;SDS011;11810;51.178;3.878;2022-09-16T17:51:01;6.28;;;1.00;;
23282;SDS011;11810;51.178;3.878;2022-09-16T17:53:27;5.03;;;1.10;;
23282;SDS011;11810;51.178;3.878;2022-09-16T17:56:05;8.02;;;1.00;;
23282;SDS011;11810;51.178;3.878;2022-09-16T17:58:35;7.72;;;1.08;;
23282;SDS011;11810;51.178;3.878;2022-09-16T18:01:03;6.97;;;0.93;;
23282;SDS011;11810;51.178;3.878;2022-09-16T18:03:31;4.28;;;0.82;;
23282;SDS011;11810;51.178;3.878;2022-09-16T18:06:18;7.88;;;1.33;;
23282;SDS011;11810;51.178;3.878;2022-09-16T18:08:44;7.80;;;1.15;;
23282;SDS011;11810;51.178;3.878;2022-09-16T18:11:12;2.17;;;0.77;;
23282;SDS011;11810;51.178;3.878;2022-09-16T18:13:39;4.13;;;0.90;;
23282;SDS011;11810;51.178;3.878;2022-09-16T18:18:35;0.10;;;0.10;;
23282;SDS011;11810;51.178;3.878;2022-09-16T18:21:03;0.52;;;0.52;;
23282;SDS011;11810;51.178;3.878;2022-09-16T18:23:31;0.15;;;0.15;;
23282;SDS011;11810;51.178;3.878;2022-09-16T18:26:04;0.15;;;0.15;;
23282;SDS011;11810;51.178;3.878;2022-09-16T18:28:37;0.10;;;0.10;;
23282;SDS011;11810;51.178;3.878;2022-09-16T18:31:11;0.20;;;0.20;;
23282;SDS011;11810;51.178;3.878;2022-09-16T18:33:39;0.10;;;0.10;;
23282;SDS011;11810;51.178;3.878;2022-09-16T18:36:07;5.72;;;1.77;;